Crocker, Missouri
Current Conditions -  °F | °C
As of 3:58 PM on Wednesday 28 Jan 2015 (Local Time) from KTBN Reporting Station
Clear Clear  
Wind Chill: 57°   Ceiling: Unl
Heat Index: 57°   Visibility: 10mi
Dew Point: 36°   Wind: 18mph
Humidity: 45%   Direction: 160°SSE
Pressure: 29.91"   Gusts: 23mph
Location:  37.95°N, 92.26°W
Report Text: KTBN 282158Z AUTO 16016G20KT 10SM CLR 14/02 A2991 RMK AO2 SLP134 T01390022
Loading
Personal Weather Stations






























Interactive Weather Map New forecast layout! Learn more

10-Day Weather Forecast

Advertisements
Track Severe Weather on mobile